Egin, Idaho
Current Conditions -  °F | °C
As of 8:53 PM on Sunday 25 Jan 2015 (Local Time) from KRXE Reporting Station
Overcast Overcast  
Wind Chill: 26°   Ceiling: 2800
Heat Index: 32°   Visibility: 8mi
Dew Point: 31°   Wind: 7mph
Humidity: 96%   Direction: 30°NNE
Pressure: 30.44"   Gusts: NA
Location:  44.2887°N, 111.507°W
Report Text: KRXE 260353Z AUTO 03006KT 8SM OVC028 00/M01 A3044 RMK AO2 SLP339 T00001006
Loading
Personal Weather Stations






























Interactive Weather Map New forecast layout! Learn more

10-Day Weather Forecast

Advertisements
Track Severe Weather on mobile